Time;durP1;ratioP1;P1;durP2;ratioP2;P2;SDS_P1;SDS_P2;PMS_P1;PMS_P2;Temp;Humidity;BMP_temperature;BMP_pressure;BME280_temperature;BME280_humidity;BME280_pressure;Samples;Min_cycle;Max_cycle;Signal;HPM_P1;HPM_P2
2022/02/25 00:01:17;;;;;;;1.27;1.00;;;;;;;4.00;92.74;152391.59;5025773;28;20467;-79
2022/02/25 00:03:53;;;;;;;1.60;1.07;;;;;;;4.02;93.06;152395.50;5030428;28;20531;-79
2022/02/25 00:06:30;;;;;;;1.80;0.90;;;;;;;3.97;94.99;152383.88;5045063;28;20455;-79
2022/02/25 00:09:07;;;;;;;1.63;0.90;;;;;;;4.03;92.08;152399.34;5026652;28;20456;-79
2022/02/25 00:11:42;;;;;;;2.33;1.20;;;;;;;4.00;92.43;152391.59;5026647;28;20965;-79
2022/02/25 00:14:18;;;;;;;1.07;0.97;;;;;;;4.01;94.58;152392.91;5040482;28;20462;-79
2022/02/25 00:16:54;;;;;;;4.50;0.93;;;;;;;3.89;93.04;152362.00;5041206;28;20448;-79
2022/02/25 00:19:29;;;;;;;1.83;0.90;;;;;;;3.87;92.15;152356.81;5025377;28;20825;-79
2022/02/25 00:22:08;;;;;;;1.63;0.90;;;;;;;3.80;91.78;152340.13;5025772;28;20494;-79
2022/02/25 00:24:44;;;;;;;1.37;0.90;;;;;;;3.85;91.81;152353.00;5045362;28;20440;-79
2022/02/25 00:27:19;;;;;;;1.30;0.97;;;;;;;3.87;92.78;152356.81;5042831;28;20475;-79
2022/02/25 00:29:55;;;;;;;1.47;0.80;;;;;;;3.80;91.46;152340.13;5025896;28;20452;-79
2022/02/25 00:32:30;;;;;;;1.60;0.80;;;;;;;3.69;92.00;152311.78;5029651;28;20892;-79
2022/02/25 00:35:07;;;;;;;1.30;0.93;;;;;;;3.82;92.69;152343.97;5025262;28;20934;-79
2022/02/25 00:37:44;;;;;;;2.20;0.80;;;;;;;3.82;91.48;152343.97;5027432;28;20570;-79
2022/02/25 00:40:21;;;;;;;1.73;0.93;;;;;;;3.77;89.78;152332.38;5022684;28;20975;-79
2022/02/25 00:42:56;;;;;;;1.67;0.97;;;;;;;3.74;92.01;152324.66;5029221;28;20479;-79
2022/02/25 00:45:32;;;;;;;1.47;1.00;;;;;;;3.69;91.04;152313.09;5044405;28;20451;-79
2022/02/25 00:48:08;;;;;;;2.33;1.50;;;;;;;3.68;91.91;152310.50;5044083;28;20957;-79
2022/02/25 00:50:44;;;;;;;1.30;0.80;;;;;;;3.62;91.99;152293.78;5043752;28;20880;-79
2022/02/25 00:53:20;;;;;;;1.20;0.80;;;;;;;3.56;91.95;152278.31;5010714;28;20565;-79
2022/02/25 00:55:56;;;;;;;2.87;1.60;;;;;;;3.58;91.46;152284.75;5040764;28;20456;-79
2022/02/25 00:58:31;;;;;;;2.90;1.20;;;;;;;3.58;91.32;152284.75;5023701;28;20474;-79
2022/02/25 01:01:07;;;;;;;1.40;1.10;;;;;;;3.57;92.19;152280.91;4975507;28;20527;-79
2022/02/25 01:03:42;;;;;;;1.10;1.00;;;;;;;3.53;92.38;152271.88;5022911;28;20445;-79
2022/02/25 01:06:18;;;;;;;2.20;1.37;;;;;;;3.47;90.92;152255.13;5021891;28;20440;-79
2022/02/25 01:08:55;;;;;;;1.73;1.00;;;;;;;3.51;92.15;152266.75;4995294;28;20964;-79
2022/02/25 01:11:30;;;;;;;2.07;1.30;;;;;;;3.46;91.00;152253.88;5006696;28;20539;-79
2022/02/25 01:14:06;;;;;;;1.90;1.00;;;;;;;3.46;91.47;152252.59;5003221;28;20452;-79
2022/02/25 01:16:41;;;;;;;1.93;1.03;;;;;;;3.45;90.13;152251.28;5022798;28;20783;-79
2022/02/25 01:19:17;;;;;;;2.50;0.97;;;;;;;3.46;89.68;152252.59;5003021;28;20540;-79
2022/02/25 01:21:53;;;;;;;2.50;1.40;;;;;;;3.42;87.87;152242.25;5006430;28;20472;-79
2022/02/25 01:24:30;;;;;;;1.50;1.37;;;;;;;3.32;89.86;152216.53;5022133;28;20448;-78
2022/02/25 01:27:07;;;;;;;2.13;1.20;;;;;;;3.33;91.55;152220.41;5021633;28;20472;-78
2022/02/25 01:29:43;;;;;;;1.97;1.20;;;;;;;3.18;88.22;152181.78;5023608;28;20432;-78
2022/02/25 01:32:18;;;;;;;3.50;1.17;;;;;;;3.10;88.53;152161.19;5019525;28;20459;-78
2022/02/25 01:34:54;;;;;;;1.93;1.30;;;;;;;3.08;88.36;152156.06;5005703;28;20447;-78
2022/02/25 01:37:29;;;;;;;2.03;1.07;;;;;;;2.92;90.43;152116.16;5006032;28;20467;-78
2022/02/25 01:40:08;;;;;;;1.60;1.20;;;;;;;2.87;89.70;152102.00;5019949;28;20457;-78
2022/02/25 01:42:46;;;;;;;1.57;1.10;;;;;;;2.86;87.90;152100.72;5023789;28;20445;-78
2022/02/25 01:45:22;;;;;;;2.40;1.23;;;;;;;2.82;88.84;152089.16;5025328;28;20451;-78
2022/02/25 01:47:57;;;;;;;1.50;1.07;;;;;;;2.80;89.70;152084.03;5023899;28;20507;-78
2022/02/25 01:50:35;;;;;;;1.50;1.30;;;;;;;2.73;89.18;152065.97;5021269;28;20450;-78
2022/02/25 01:53:11;;;;;;;1.33;1.20;;;;;;;2.76;88.66;152073.72;4992559;28;20804;-78
2022/02/25 01:55:48;;;;;;;1.83;1.37;;;;;;;2.75;86.91;152071.16;5010925;28;20447;-78
2022/02/25 01:58:24;;;;;;;1.87;1.17;;;;;;;2.76;86.62;152075.00;4995758;28;20502;-78
2022/02/25 02:01:03;;;;;;;1.67;1.23;;;;;;;2.67;87.42;152051.88;5025545;28;20471;-78
2022/02/25 02:03:38;;;;;;;2.60;1.50;;;;;;;2.61;89.05;152035.13;5009478;28;20536;-78
2022/02/25 02:06:14;;;;;;;1.50;1.33;;;;;;;2.54;89.58;152018.44;5010929;28;20452;-77
2022/02/25 02:08:50;;;;;;;1.37;0.87;;;;;;;2.51;86.94;152009.41;5010760;28;20648;-77
2022/02/25 02:11:32;;;;;;;1.97;1.13;;;;;;;2.54;86.78;152018.44;5009111;28;20453;-77
2022/02/25 02:14:12;;;;;;;3.90;1.23;;;;;;;2.53;88.02;152014.56;5025028;28;20448;-77
2022/02/25 02:16:50;;;;;;;1.87;1.20;;;;;;;2.48;87.58;152003.00;4997771;28;20456;-77
2022/02/25 02:19:26;;;;;;;2.20;1.43;;;;;;;2.43;89.41;151990.13;4991829;28;20444;-77
2022/02/25 02:22:03;;;;;;;2.33;0.97;;;;;;;2.44;88.08;151993.97;5027335;28;20448;-77
2022/02/25 02:24:39;;;;;;;3.33;1.83;;;;;;;2.39;88.50;151981.13;5011179;28;20441;-78
2022/02/25 02:27:15;;;;;;;1.50;1.10;;;;;;;2.41;88.21;151986.25;5025783;28;20957;-77
2022/02/25 02:29:50;;;;;;;2.20;1.60;;;;;;;2.38;88.37;151978.53;5011590;28;20459;-77
2022/02/25 02:32:26;;;;;;;2.03;1.23;;;;;;;2.38;88.01;151978.53;4996289;28;20495;-78
2022/02/25 02:35:02;;;;;;;2.70;1.07;;;;;;;2.30;87.33;151957.94;4996444;28;20555;-77
2022/02/25 02:37:37;;;;;;;1.70;1.10;;;;;;;2.32;88.10;151963.13;5011934;28;20614;-77
2022/02/25 02:40:14;;;;;;;2.30;0.90;;;;;;;2.23;88.47;151938.66;5011332;28;20460;-77
2022/02/25 02:42:50;;;;;;;3.37;1.50;;;;;;;2.29;89.45;151954.13;5027251;28;20456;-77
2022/02/25 02:45:25;;;;;;;1.40;1.10;;;;;;;2.19;88.48;151929.72;5009882;28;20447;-78
2022/02/25 02:48:01;;;;;;;1.57;0.93;;;;;;;2.18;87.03;151927.13;5011477;28;20956;-77
2022/02/25 02:50:36;;;;;;;3.00;1.50;;;;;;;2.15;87.58;151918.09;5026636;28;20440;-77
2022/02/25 02:53:14;;;;;;;6.73;1.37;;;;;;;2.14;87.27;151916.84;5009461;28;20543;-78
2022/02/25 02:55:51;;;;;;;1.40;1.00;;;;;;;2.15;89.84;151919.41;5026217;28;20940;-78
2022/02/25 02:58:27;;;;;;;1.60;1.10;;;;;;;2.08;90.09;151901.41;5018728;28;20480;-80
2022/02/25 03:01:03;;;;;;;4.07;1.30;;;;;;;2.08;89.82;151901.41;5021931;28;20857;-78
2022/02/25 03:03:38;;;;;;;1.87;1.30;;;;;;;2.05;90.36;151892.41;4993449;28;20792;-79
2022/02/25 03:06:14;;;;;;;1.43;1.10;;;;;;;2.04;89.31;151891.09;4994442;28;20461;-78
2022/02/25 03:08:50;;;;;;;3.53;1.20;;;;;;;2.09;89.71;151902.72;5009097;28;20464;-78
2022/02/25 03:11:27;;;;;;;2.63;1.50;;;;;;;2.08;89.53;151901.41;5022018;28;20451;-78
2022/02/25 03:14:03;;;;;;;2.93;1.10;;;;;;;2.09;90.84;151903.94;5023621;28;20554;-78
2022/02/25 03:16:39;;;;;;;1.90;1.20;;;;;;;2.02;90.24;151885.97;5025121;28;20939;-78
2022/02/25 03:19:15;;;;;;;1.73;1.17;;;;;;;1.96;91.76;151869.28;5026643;28;20447;-79
2022/02/25 03:21:50;;;;;;;2.50;1.47;;;;;;;1.93;89.60;151862.88;5025798;28;20476;-78
2022/02/25 03:24:26;;;;;;;1.40;1.10;;;;;;;1.92;89.40;151860.28;5024296;28;20484;-79
2022/02/25 03:27:03;;;;;;;1.10;0.80;;;;;;;1.88;91.15;151849.97;5009278;28;20927;-79
2022/02/25 03:29:38;;;;;;;1.37;0.93;;;;;;;1.89;90.60;151852.56;4991168;28;20803;-79
2022/02/25 03:32:14;;;;;;;9.30;1.70;;;;;;;1.93;89.07;151862.88;4988399;28;20456;-79
2022/02/25 03:34:50;;;;;;;3.73;1.10;;;;;;;1.92;91.15;151860.28;5024587;28;20526;-79
2022/02/25 03:37:28;;;;;;;1.50;1.00;;;;;;;1.86;90.04;151844.84;5023473;28;20478;-79
2022/02/25 03:40:04;;;;;;;4.77;1.90;;;;;;;1.81;89.17;151832.00;5024576;28;20441;-79
2022/02/25 03:42:41;;;;;;;6.80;1.30;;;;;;;1.77;90.65;151821.72;5007791;28;20465;-79
2022/02/25 03:45:16;;;;;;;1.77;0.90;;;;;;;1.76;89.69;151819.13;5024958;28;20449;-79
2022/02/25 03:47:52;;;;;;;2.57;1.40;;;;;;;1.73;91.26;151811.41;5023181;28;20472;-80
2022/02/25 03:50:28;;;;;;;1.80;1.00;;;;;;;1.71;92.13;151806.28;5021403;28;20537;-79
2022/02/25 03:53:03;;;;;;;5.37;1.63;;;;;;;1.70;91.24;151803.69;5018380;28;20551;-80
2022/02/25 03:55:39;;;;;;;1.60;1.10;;;;;;;1.66;91.49;151794.75;5025635;28;20451;-80
2022/02/25 03:58:16;;;;;;;5.10;1.20;;;;;;;1.64;90.42;151788.31;5039246;28;20476;-80
2022/02/25 04:00:52;;;;;;;2.40;1.00;;;;;;;1.63;91.51;151785.72;5045097;28;20447;-79
2022/02/25 04:03:28;;;;;;;1.73;1.33;;;;;;;1.60;90.72;151778.00;5043349;28;20811;-79
2022/02/25 04:06:03;;;;;;;1.60;1.20;;;;;;;1.54;89.34;151762.56;5028003;28;20531;-79
2022/02/25 04:08:39;;;;;;;2.30;1.03;;;;;;;1.54;89.56;151762.56;5011958;28;20564;-79
2022/02/25 04:11:15;;;;;;;2.93;1.20;;;;;;;1.51;89.94;151754.91;5025322;28;20451;-79
2022/02/25 04:13:53;;;;;;;2.10;0.90;;;;;;;1.49;89.37;151751.03;5025763;28;20781;-79
2022/02/25 04:16:29;;;;;;;1.47;1.37;;;;;;;1.49;89.00;151751.03;5042061;28;20478;-79
2022/02/25 04:19:05;;;;;;;5.87;1.80;;;;;;;1.45;88.26;151740.78;5027538;28;20443;-79
2022/02/25 04:21:41;;;;;;;1.37;1.13;;;;;;;1.39;89.15;151724.03;5026029;28;20455;-79
2022/02/25 04:24:16;;;;;;;1.40;1.20;;;;;;;1.36;90.06;151716.31;5027018;28;20942;-79
2022/02/25 04:26:52;;;;;;;3.07;1.20;;;;;;;1.34;89.56;151712.50;5011060;28;20505;-80
2022/02/25 04:29:29;;;;;;;1.70;1.00;;;;;;;1.35;90.47;151713.78;5026756;28;20477;-79
2022/02/25 04:32:05;;;;;;;1.73;0.90;;;;;;;1.36;90.27;151717.63;5042676;28;20506;-79
2022/02/25 04:34:40;;;;;;;2.10;1.30;;;;;;;1.36;89.83;151716.31;5022442;28;20441;-79
2022/02/25 04:37:16;;;;;;;1.80;0.83;;;;;;;1.37;91.19;151718.91;5030599;28;20451;-79
2022/02/25 04:39:51;;;;;;;2.20;1.00;;;;;;;1.37;90.69;151718.91;5041409;28;20845;-79
2022/02/25 04:42:27;;;;;;;1.50;1.07;;;;;;;1.37;90.85;151718.91;5023352;28;20459;-79
2022/02/25 04:45:05;;;;;;;3.47;1.40;;;;;;;1.41;90.76;151729.16;5024924;28;20849;-79
2022/02/25 04:47:44;;;;;;;2.97;1.20;;;;;;;1.45;92.02;151740.78;5027419;28;20459;-79
2022/02/25 04:50:19;;;;;;;1.47;1.10;;;;;;;1.45;89.73;151739.47;5026620;28;20436;-79
2022/02/25 04:53:00;;;;;;;3.20;1.10;;;;;;;1.45;89.68;151739.47;5043063;28;20454;-79
2022/02/25 04:55:35;;;;;;;2.00;0.90;;;;;;;1.47;90.65;151745.91;5042755;28;20478;-79
2022/02/25 04:58:14;;;;;;;2.07;1.10;;;;;;;1.43;89.16;151734.34;5008510;28;20491;-79
2022/02/25 05:00:50;;;;;;;4.23;1.00;;;;;;;1.38;89.85;151722.75;5003350;28;20951;-79
2022/02/25 05:03:28;;;;;;;3.37;1.37;;;;;;;1.35;90.78;151713.78;5007126;28;20497;-79
2022/02/25 05:06:04;;;;;;;3.07;0.90;;;;;;;1.34;90.31;151712.50;4991097;28;20456;-79
2022/02/25 05:08:39;;;;;;;3.83;0.90;;;;;;;1.33;91.96;151708.63;4986418;28;20467;-79
2022/02/25 05:11:17;;;;;;;2.30;1.27;;;;;;;1.35;90.40;151713.78;5006355;28;20582;-78
2022/02/25 05:13:52;;;;;;;1.57;1.23;;;;;;;1.34;91.09;151712.50;5023091;28;20809;-79
2022/02/25 05:22:15;;;;;;;1.70;1.10;;;;;;;1.35;91.98;151715.03;5020046;28;20876;-79
2022/02/25 05:24:51;;;;;;;5.87;1.37;;;;;;;1.42;92.04;151733.06;5006653;28;20451;-79
2022/02/25 05:27:27;;;;;;;4.63;0.90;;;;;;;1.42;91.78;151733.06;5024143;28;20459;-78
2022/02/25 05:30:06;;;;;;;2.60;1.50;;;;;;;1.45;91.84;151740.78;5009526;28;20560;-78
2022/02/25 05:32:43;;;;;;;4.97;1.67;;;;;;;1.48;91.86;151747.19;4995166;28;20546;-79
2022/02/25 05:35:19;;;;;;;2.43;1.20;;;;;;;1.47;92.79;151744.59;5027032;28;20894;-79
2022/02/25 05:37:55;;;;;;;4.17;1.00;;;;;;;1.45;92.40;151739.47;5023610;28;20452;-79
2022/02/25 05:40:30;;;;;;;1.30;0.97;;;;;;;1.47;93.14;151744.59;4994358;28;20545;-79
2022/02/25 05:43:06;;;;;;;2.07;0.90;;;;;;;1.49;93.59;151749.72;5012588;28;20460;-78
2022/02/25 05:45:41;;;;;;;1.63;1.30;;;;;;;1.53;93.70;151761.34;5021911;28;20451;-78
2022/02/25 05:48:18;;;;;;;3.00;1.27;;;;;;;1.50;93.30;151752.31;5021688;28;20971;-79
2022/02/25 05:50:54;;;;;;;1.90;1.07;;;;;;;1.51;93.41;151754.91;5007731;28;20458;-78
2022/02/25 05:53:30;;;;;;;3.57;1.27;;;;;;;1.50;93.30;151752.31;5006332;28;20478;-79
2022/02/25 05:56:06;;;;;;;2.10;1.67;;;;;;;1.49;91.54;151749.72;5023767;28;20462;-79
2022/02/25 05:58:42;;;;;;;3.93;1.10;;;;;;;1.52;93.50;151757.44;5039835;28;20461;-79
2022/02/25 06:01:17;;;;;;;1.33;1.00;;;;;;;1.57;94.08;151770.28;5044981;28;20446;-79
2022/02/25 06:03:55;;;;;;;1.83;1.30;;;;;;;1.59;93.18;151775.47;5047361;28;20444;-78
2022/02/25 06:06:30;;;;;;;2.47;1.00;;;;;;;1.61;93.34;151780.59;5028017;28;20868;-78
2022/02/25 06:09:06;;;;;;;4.10;1.40;;;;;;;1.60;93.35;151778.00;5032048;28;20542;-78
2022/02/25 06:11:42;;;;;;;2.63;1.43;;;;;;;1.64;93.01;151788.31;5037755;28;20505;-78
2022/02/25 06:14:18;;;;;;;2.07;1.50;;;;;;;1.60;93.94;151779.31;5029642;28;20450;-79
2022/02/25 06:16:53;;;;;;;2.30;1.40;;;;;;;1.57;93.59;151771.59;5043685;28;20845;-79
2022/02/25 06:19:30;;;;;;;6.80;1.80;;;;;;;1.58;93.09;151772.88;5019948;28;20456;-79
2022/02/25 06:22:06;;;;;;;4.87;2.00;;;;;;;1.57;92.53;151770.28;5046123;28;20798;-79
2022/02/25 06:24:42;;;;;;;3.53;1.53;;;;;;;1.59;91.73;151776.72;5012977;28;20456;-79
2022/02/25 06:27:17;;;;;;;2.33;1.20;;;;;;;1.57;92.15;151770.28;5041080;28;20920;-79
2022/02/25 06:29:57;;;;;;;2.50;1.50;;;;;;;1.57;91.90;151770.28;5024615;28;21032;-79
2022/02/25 06:32:33;;;;;;;3.23;1.20;;;;;;;1.57;93.21;151770.28;5028062;28;20454;-78
2022/02/25 06:35:10;;;;;;;2.83;1.40;;;;;;;1.53;92.42;151760.03;5037068;28;20435;-79
2022/02/25 06:37:46;;;;;;;2.03;1.53;;;;;;;1.52;92.81;151757.44;5035800;28;20466;-80
2022/02/25 06:40:21;;;;;;;2.40;1.03;;;;;;;1.46;91.75;151742.00;5031334;28;20447;-79
2022/02/25 06:42:57;;;;;;;3.50;1.60;;;;;;;1.50;91.50;151752.31;5032216;28;20550;-79
2022/02/25 06:45:33;;;;;;;4.17;1.87;;;;;;;1.46;92.00;151742.00;5027328;28;20455;-79
2022/02/25 06:48:09;;;;;;;2.10;1.37;;;;;;;1.48;92.17;151747.19;5044935;28;20462;-79
2022/02/25 06:50:46;;;;;;;2.53;1.20;;;;;;;1.60;93.20;151778.00;5025028;28;20562;-79
2022/02/25 06:53:22;;;;;;;1.87;1.53;;;;;;;1.76;93.10;151820.44;5039597;28;20505;-79
2022/02/25 06:55:57;;;;;;;3.10;1.60;;;;;;;1.83;91.44;151837.13;5027391;28;20431;-79
2022/02/25 06:58:34;;;;;;;6.50;1.80;;;;;;;1.96;91.64;151869.28;5038483;28;20467;-79
2022/02/25 07:01:10;;;;;;;3.97;1.77;;;;;;;2.07;91.80;151898.81;5024678;28;20538;-79
2022/02/25 07:03:45;;;;;;;5.40;2.50;;;;;;;2.18;91.05;151927.13;5041155;28;20447;-79
2022/02/25 07:06:24;;;;;;;3.70;1.83;;;;;;;2.33;90.65;151964.44;5043110;28;20451;-79
2022/02/25 07:08:59;;;;;;;4.70;1.57;;;;;;;2.48;91.97;152003.00;5040399;28;20981;-79
2022/02/25 07:11:35;;;;;;;8.53;1.50;;;;;;;2.62;90.70;152037.72;5042982;28;20455;-79
2022/02/25 07:14:11;;;;;;;6.20;1.90;;;;;;;2.74;89.81;152069.88;5032119;28;20452;-80
2022/02/25 07:16:47;;;;;;;3.80;1.97;;;;;;;2.83;89.35;152093.00;5045331;28;20539;-79
2022/02/25 07:19:22;;;;;;;3.50;1.83;;;;;;;2.93;88.06;152118.75;5046665;28;20436;-80
2022/02/25 07:21:59;;;;;;;4.73;1.73;;;;;;;3.06;87.81;152150.91;5043800;28;20550;-80
2022/02/25 07:24:35;;;;;;;5.03;1.93;;;;;;;3.18;88.26;152181.78;5026723;28;20483;-80
2022/02/25 07:27:11;;;;;;;2.57;1.80;;;;;;;3.40;87.46;152238.41;5007689;28;20896;-80
2022/02/25 07:29:46;;;;;;;3.33;1.70;;;;;;;3.48;86.83;152259.00;5020028;28;20835;-80
2022/02/25 07:32:23;;;;;;;2.50;1.50;;;;;;;3.68;84.96;152309.19;5026130;28;20466;-79
2022/02/25 07:34:59;;;;;;;2.10;1.80;;;;;;;3.83;84.79;152346.56;5042406;28;20455;-80
2022/02/25 07:37:36;;;;;;;2.80;1.97;;;;;;;3.86;84.68;152354.28;5028948;28;20494;-80
2022/02/25 07:40:13;;;;;;;3.07;1.30;;;;;;;4.10;83.96;152416.09;5042069;28;20459;-80
2022/02/25 07:42:49;;;;;;;3.73;2.03;;;;;;;4.37;82.79;152485.63;5042106;28;20478;-80
2022/02/25 07:45:26;;;;;;;3.37;1.60;;;;;;;4.57;81.37;152537.19;5039041;28;20444;-80
2022/02/25 07:48:01;;;;;;;3.70;1.90;;;;;;;4.75;79.73;152583.56;5026369;28;20800;-80
2022/02/25 07:50:37;;;;;;;1.93;1.43;;;;;;;5.07;78.73;152663.44;5037168;28;20464;-81
2022/02/25 07:53:14;;;;;;;3.47;1.80;;;;;;;5.17;78.32;152689.22;5044390;28;20949;-80
2022/02/25 07:55:49;;;;;;;3.83;1.57;;;;;;;5.39;78.51;152745.94;5044400;28;20456;-80
2022/02/25 07:58:26;;;;;;;5.27;1.90;;;;;;;5.66;76.36;152815.59;5042879;28;20471;-81
2022/02/25 08:01:02;;;;;;;2.87;1.97;;;;;;;5.73;77.52;152832.34;5042303;28;20941;-81
2022/02/25 08:03:37;;;;;;;3.37;1.70;;;;;;;6.06;77.09;152917.53;5043163;28;20481;-81
2022/02/25 08:06:13;;;;;;;2.30;1.50;;;;;;;6.21;74.69;152956.22;5027566;28;20950;-82
2022/02/25 08:08:50;;;;;;;3.80;2.00;;;;;;;6.25;74.67;152965.28;5008363;28;21003;-81
2022/02/25 08:11:26;;;;;;;2.93;1.43;;;;;;;6.40;74.96;153003.97;5021933;28;20452;-81
2022/02/25 08:14:03;;;;;;;4.00;2.10;;;;;;;6.38;74.36;153000.06;5025139;28;20450;-82
2022/02/25 08:16:39;;;;;;;4.70;1.60;;;;;;;6.29;72.57;152976.88;5040550;28;20456;-81
2022/02/25 08:19:14;;;;;;;4.50;1.63;;;;;;;6.13;74.28;152936.88;5010695;28;20531;-81
2022/02/25 08:21:50;;;;;;;8.10;1.40;;;;;;;6.09;72.55;152925.22;5038564;28;20452;-81
2022/02/25 08:24:27;;;;;;;3.10;1.13;;;;;;;6.03;73.39;152911.09;5025499;28;20546;-80
2022/02/25 08:27:04;;;;;;;6.10;1.53;;;;;;;6.11;73.64;152931.72;5009569;28;20455;-80
2022/02/25 08:29:39;;;;;;;2.50;1.37;;;;;;;6.10;72.28;152929.13;5009414;28;20472;-80
2022/02/25 08:32:20;;;;;;;2.40;1.40;;;;;;;6.11;71.47;152931.72;5047627;28;20846;-80
2022/02/25 08:34:56;;;;;;;1.70;1.10;;;;;;;6.06;73.35;152918.78;5024923;28;20441;-80
2022/02/25 08:37:31;;;;;;;6.10;1.50;;;;;;;6.17;70.84;152945.88;5027642;28;20452;-79
2022/02/25 08:40:09;;;;;;;3.77;1.53;;;;;;;6.29;70.95;152975.56;5041497;28;20436;-80
2022/02/25 08:42:45;;;;;;;3.67;1.50;;;;;;;6.21;74.33;152956.22;5024819;28;20467;-80
2022/02/25 08:45:21;;;;;;;2.90;1.20;;;;;;;6.11;73.37;152930.44;5010004;28;20444;-80
2022/02/25 08:47:57;;;;;;;3.73;1.50;;;;;;;6.18;72.59;152947.19;5041129;28;20842;-80
2022/02/25 08:50:33;;;;;;;4.03;1.60;;;;;;;6.20;71.20;152952.31;5042163;28;20463;-80
2022/02/25 08:53:08;;;;;;;2.87;1.40;;;;;;;6.12;70.83;152934.28;5025345;28;20496;-79
2022/02/25 08:55:45;;;;;;;3.70;1.10;;;;;;;5.96;74.81;152893.00;5025445;28;20456;-79
2022/02/25 08:58:21;;;;;;;7.90;1.53;;;;;;;6.13;72.29;152936.88;5025343;28;20488;-79
2022/02/25 09:00:56;;;;;;;2.80;1.10;;;;;;;5.99;72.30;152899.44;5024939;28;20451;-79
2022/02/25 09:03:32;;;;;;;3.80;1.27;;;;;;;6.03;73.48;152911.09;5024427;28;20462;-79
2022/02/25 09:06:08;;;;;;;2.27;1.40;;;;;;;5.94;73.39;152887.84;5039937;28;20447;-79
2022/02/25 09:08:43;;;;;;;3.17;1.57;;;;;;;5.97;73.26;152894.28;5041346;28;20892;-79
2022/02/25 09:11:21;;;;;;;4.60;2.03;;;;;;;6.12;71.88;152934.28;5038827;28;20468;-79
2022/02/25 09:13:56;;;;;;;3.80;1.53;;;;;;;5.93;72.14;152884.00;5009562;28;20672;-79
2022/02/25 09:16:32;;;;;;;3.53;1.73;;;;;;;5.98;74.89;152898.16;5008665;28;20496;-79
2022/02/25 09:19:09;;;;;;;3.93;1.60;;;;;;;5.98;72.60;152896.91;5040371;28;20463;-79
2022/02/25 09:21:44;;;;;;;4.40;1.70;;;;;;;5.93;72.65;152884.00;5041750;28;20459;-78
2022/02/25 09:24:21;;;;;;;2.10;1.33;;;;;;;5.98;72.88;152898.16;5019418;28;20460;-79
2022/02/25 09:26:58;;;;;;;2.13;1.07;;;;;;;5.84;74.39;152860.72;5037519;28;20494;-79
2022/02/25 09:29:34;;;;;;;4.10;1.90;;;;;;;5.83;72.09;152859.41;5040248;28;20499;-78
2022/02/25 09:32:09;;;;;;;2.90;1.33;;;;;;;5.93;70.31;152884.00;5023761;28;20455;-79
2022/02/25 09:34:45;;;;;;;2.50;1.33;;;;;;;5.97;71.00;152895.59;5023934;28;20953;-78
2022/02/25 09:37:21;;;;;;;2.80;1.57;;;;;;;5.85;68.98;152864.63;5026061;28;20454;-79
2022/02/25 09:39:56;;;;;;;4.73;1.23;;;;;;;5.70;72.19;152825.88;5024716;28;20435;-78
2022/02/25 09:42:33;;;;;;;9.20;1.73;;;;;;;5.68;69.39;152820.75;5005839;28;20447;-79
2022/02/25 09:45:11;;;;;;;3.37;1.40;;;;;;;5.53;72.18;152782.06;5040446;28;20487;-78
2022/02/25 09:47:47;;;;;;;3.53;1.67;;;;;;;5.65;68.57;152813.00;5019660;28;20504;-78
2022/02/25 09:50:24;;;;;;;1.97;1.30;;;;;;;5.63;67.83;152807.84;5009775;28;20480;-78
2022/02/25 09:52:59;;;;;;;4.03;1.30;;;;;;;5.79;68.08;152849.13;5023343;28;20461;-79
2022/02/25 09:55:35;;;;;;;2.70;1.60;;;;;;;5.74;67.26;152836.22;5007751;28;20546;-78
2022/02/25 09:58:13;;;;;;;2.10;1.40;;;;;;;5.65;70.99;152811.69;5039218;28;20540;-79
2022/02/25 10:00:49;;;;;;;2.60;1.00;;;;;;;5.69;69.35;152823.34;5029058;28;20439;-79
2022/02/25 10:03:29;;;;;;;5.00;1.30;;;;;;;5.79;69.03;152849.13;5042498;28;20452;-79
2022/02/25 10:06:05;;;;;;;2.07;1.10;;;;;;;5.83;67.70;152859.41;5038469;28;20808;-79
2022/02/25 10:08:40;;;;;;;2.67;1.37;;;;;;;5.80;68.28;152850.44;5044015;28;20530;-79
2022/02/25 10:11:16;;;;;;;1.97;1.07;;;;;;;5.81;70.47;152852.97;5025458;28;20477;-79
2022/02/25 10:14:10;;;;;;;4.77;1.87;;;;;;;5.81;67.04;152854.28;5046245;28;20492;-79
2022/02/25 10:17:08;;;;;;;2.87;1.30;;;;;;;5.84;70.37;152862.00;5033258;28;20454;-79
2022/02/25 10:19:46;;;;;;;6.80;2.00;;;;;;;5.92;66.45;152882.69;5042975;28;20444;-79
2022/02/25 10:22:24;;;;;;;2.27;1.30;;;;;;;5.97;69.12;152895.59;5030841;28;20450;-79
2022/02/25 10:25:03;;;;;;;2.50;1.40;;;;;;;5.98;69.48;152898.16;5015674;28;20454;-79
2022/02/25 10:27:41;;;;;;;3.93;1.27;;;;;;;6.05;69.93;152914.94;5016098;28;20926;-79
2022/02/25 10:30:19;;;;;;;2.20;1.30;;;;;;;6.04;69.32;152912.34;5045766;28;20466;-78
2022/02/25 10:32:55;;;;;;;2.57;1.20;;;;;;;6.09;65.84;152926.53;5047671;28;20486;-79
2022/02/25 10:35:33;;;;;;;2.20;1.10;;;;;;;6.27;66.45;152970.41;5032187;28;20828;-79
2022/02/25 10:38:09;;;;;;;2.60;1.10;;;;;;;6.27;65.88;152970.41;5031601;28;20443;-79
2022/02/25 10:40:47;;;;;;;4.10;1.30;;;;;;;6.35;64.53;152991.06;5046274;28;20541;-79
2022/02/25 10:43:27;;;;;;;4.47;1.40;;;;;;;6.33;65.64;152987.16;5047955;28;20825;-79
2022/02/25 10:46:12;;;;;;;4.53;1.20;;;;;;;6.45;66.67;153016.88;5048509;28;20482;-79
2022/02/25 10:48:47;;;;;;;2.30;1.30;;;;;;;6.36;67.03;152994.91;5029412;28;20447;-79
2022/02/25 10:51:24;;;;;;;3.13;1.30;;;;;;;6.37;68.35;152997.53;5043368;28;20675;-78
2022/02/25 10:53:59;;;;;;;5.83;1.27;;;;;;;6.29;66.37;152975.56;5049079;28;20942;-79
2022/02/25 10:56:47;;;;;;;2.53;0.90;;;;;;;6.41;63.32;153006.53;5047156;28;20451;-79
2022/02/25 10:59:22;;;;;;;5.10;1.40;;;;;;;6.41;68.42;153007.81;5030939;28;20502;-79
2022/02/25 11:02:00;;;;;;;6.43;1.20;;;;;;;6.35;62.76;152992.38;5029797;28;20807;-79
2022/02/25 11:04:35;;;;;;;6.60;1.67;;;;;;;6.35;63.38;152991.06;5045787;28;20439;-78
2022/02/25 11:07:11;;;;;;;3.30;1.20;;;;;;;6.43;62.84;153011.72;5024055;28;20458;-78
2022/02/25 11:09:47;;;;;;;3.47;1.43;;;;;;;6.50;61.74;153029.75;5047836;28;20536;-78
2022/02/25 11:12:23;;;;;;;4.73;1.50;;;;;;;6.46;69.82;153019.47;5031371;28;20803;-79
2022/02/25 11:14:58;;;;;;;2.90;1.20;;;;;;;6.44;67.66;153014.28;5030450;28;20955;-79
2022/02/25 11:17:36;;;;;;;4.13;1.77;;;;;;;6.60;63.50;153056.88;5014723;28;20479;-79
2022/02/25 11:20:13;;;;;;;5.63;1.33;;;;;;;6.57;64.52;153047.81;5028307;28;20965;-79
2022/02/25 11:22:52;;;;;;;6.27;1.13;;;;;;;6.56;66.19;153045.25;5044472;28;20451;-78
2022/02/25 11:25:28;;;;;;;4.63;1.33;;;;;;;6.47;63.52;153023.31;5029761;28;20457;-79
2022/02/25 11:28:05;;;;;;;4.97;1.20;;;;;;;6.47;61.09;153022.00;5047137;28;20447;-78
2022/02/25 11:30:43;;;;;;;3.30;0.93;;;;;;;6.47;62.91;153022.00;5046629;28;20824;-79
2022/02/25 11:33:22;;;;;;;2.07;1.10;;;;;;;6.46;59.39;153019.47;5031171;28;20517;-78
2022/02/25 11:35:59;;;;;;;1.07;0.60;;;;;;;6.70;57.29;153081.38;5013027;28;20823;-78
2022/02/25 11:38:38;;;;;;;8.07;1.60;;;;;;;6.78;62.04;153100.78;5028593;28;20455;-79
2022/02/25 11:41:17;;;;;;;4.50;1.20;;;;;;;6.83;60.06;153114.94;5044118;28;20580;-78
2022/02/25 11:43:54;;;;;;;1.60;0.90;;;;;;;6.85;59.49;153118.81;5014149;28;20961;-78
2022/02/25 11:46:36;;;;;;;4.27;1.13;;;;;;;6.84;58.00;153117.53;5030355;28;20482;-78
2022/02/25 11:49:41;;;;;;;2.20;0.90;;;;;;;6.80;58.12;153107.22;5022103;28;20833;-79
2022/02/25 11:52:32;;;;;;;3.67;1.10;;;;;;;6.79;58.52;153104.63;5043096;28;20548;-79
2022/02/25 11:55:08;;;;;;;2.03;1.00;;;;;;;6.85;64.83;153120.13;5042005;28;20500;-79
2022/02/25 11:57:43;;;;;;;4.13;1.53;;;;;;;6.84;59.51;153117.53;5044858;28;20475;-79
2022/02/25 12:00:21;;;;;;;4.13;1.33;;;;;;;6.79;62.36;153103.31;5024776;28;20959;-79
2022/02/25 12:03:13;;;;;;;4.60;1.43;;;;;;;6.78;60.92;153102.03;5045646;28;20458;-79
2022/02/25 12:05:50;;;;;;;2.00;0.87;;;;;;;6.77;59.88;153098.19;5014001;28;20447;-79
2022/02/25 12:08:28;;;;;;;2.20;1.10;;;;;;;6.79;58.75;153104.63;5044450;28;20462;-79
2022/02/25 12:11:29;;;;;;;2.40;1.10;;;;;;;6.66;60.66;153071.06;5027097;28;21024;-79
2022/02/25 12:14:05;;;;;;;2.23;1.10;;;;;;;6.60;60.81;153056.88;5045501;28;20455;-80
2022/02/25 12:16:41;;;;;;;4.00;1.40;;;;;;;6.57;58.62;153047.81;5028288;28;20490;-79
2022/02/25 12:19:26;;;;;;;3.87;1.10;;;;;;;6.55;62.21;153042.66;5029569;28;20459;-79
2022/02/25 12:22:25;;;;;;;3.63;1.50;;;;;;;6.64;62.67;153065.91;5043160;28;20451;-79
2022/02/25 12:25:12;;;;;;;3.73;1.27;;;;;;;6.69;59.73;153078.81;5022491;28;20953;-79